Willare, Western Australia

11:14 PM AWST on February 08, 2016 (GMT +0800)
Curtin | | Change Station
CLOSE
Current Station
Airport
Location: Curtin,
Elevation: 299 ft
Nearby Weather Stations

Elev 299 ft 17.58 °S, 123.83 °E | Updated 14 minutes ago

Clear
Clear
84 °F
Feels Like 94 °F
N
6
Wind Variable Wind from North

Today
High -- | Low -- °F
--% Chance of Precip.
Yesterday
High -- | Low -- °F
Precip. -- in
Pressure 29.74 in
Visibility -9999.0 miles
Clouds
Heat Index 94 °F
Dew Point 77 °F
Humidity 79%
Rainfall 0.00 in
Snow Depth Not available.
5:35 AM 6:22 PM
New Moon, 0% visible
METAR YCIN 081500Z AUTO 35005KT //// // NCD 29/25 Q1007
Pressure 29.74 in
Visibility -9999.0 miles
Clouds
Heat Index 94 °F
Dew Point 77 °F
Humidity 79%
Rainfall 0.00 in
Snow Depth Not available.
5:35 AM 6:22 PM
New Moon, 0% visible
METAR YCIN 081500Z AUTO 35005KT //// // NCD 29/25 Q1007

10-Day Weather Forecast

No radar image for this location.
×

Almanac

Astronomy

Feb. 08, 2016 Rise Set
Actual Time
Civil Twilight
Nautical Twilight
Astronomical Twilight
Moon
Length of Visible Light
Length of Day
Tomorrow will be .
, % of the Moon is Illuminated

Today's Extremes

Country Highs Country Lows

Community

WunderPhotos

Upload Photos

1,891,450 photos uploaded!

WunderBlog® & News

Nearby

Air Quality

  Air Quality AQ Index Pollutant
Not available.

Snow Depth

Station Depth Elevation

Earthquake Activity

City Distance Mag. Time & Date
Minimum magnitude displayed is 2.5.

Coastal Water Temperatures

Place Temperature

Stations

Nearby Weather Stations

Station Location Temp. Windchill Dew Point Humidity Wind Precip. Elev Updated Type